Latest Weather Observations for Middle Point

IDD60801

Issued at 10:01 pm CST Friday 15 November 2019 (issued every 10 minutes, with the page automatically refreshed every 10 minutes)

About weather observations | Map of weather stations | Latest weather observations for NT | Other Formats
Station Details ID: 014041 Name: MIDDLE POINT Lat: -12.61 Lon: 131.30 Height: 14.1 m
Data from the previous 72 hours. | See also: Recent months at Middle Point
Date/Time
CST
Temp
°C
App
Temp
°C
Dew
Point
°C
Rel
Hum
%
Delta-T
°C
Wind Press
QNH
hPa
Press
MSL
hPa
Rain since
9am
mm
Dir  Spd
km/h
Gust
km/h
Spd
kts
Gust
kts
15/10:00pm 27.5 32.3 24.4 83 2.2 N 7 9 4 5 1011.0 1010.8 0.0
15/09:30pm 28.1 33.0 24.3 80 2.6 N 6 6 3 3 1010.5 1010.4 0.0
15/09:00pm 28.2 33.0 24.2 79 2.8 N 6 7 3 4 1009.8 1009.7 0.0
15/08:30pm 28.6 33.2 24.2 77 3.1 N 7 7 4 4 1009.1 1009.0 0.0
15/08:00pm 29.5 33.7 24.1 72 3.7 NNW 9 11 5 6 1008.6 1008.5 0.0
15/07:30pm 30.0 33.8 23.4 67 4.6 WNW 9 13 5 7 1007.8 1007.7 0.0
15/07:00pm 31.0 33.7 23.4 64 5.2 WNW 15 22 8 12 1007.4 1007.3 0.0
15/06:30pm 32.1 35.0 23.9 62 5.7 NW 15 20 8 11 1007.2 1007.1 0.0
15/06:00pm 33.0 35.5 24.5 61 6.0 NW 19 28 10 15 1006.8 1006.7 0.0
15/05:30pm 34.3 36.7 24.3 56 7.0 NNW 19 26 10 14 1006.5 1006.4 0.0
15/05:00pm 35.1 37.6 23.8 52 7.9 NNW 17 24 9 13 1006.6 1006.5 0.0
15/04:30pm 35.7 37.4 23.0 48 8.8 N 19 26 10 14 1006.5 1006.4 0.0
15/04:00pm 35.6 38.6 25.5 56 7.2 NNW 20 28 11 15 1006.3 1006.2 0.0
15/03:30pm 35.5 37.8 24.4 52 7.8 NNW 20 28 11 15 1006.8 1006.7 0.0
15/03:00pm 38.5 40.0 18.9 32 13.0 NE 9 17 5 9 1006.8 1006.7 0.0
15/02:30pm 37.9 38.4 18.3 31 12.9 NNE 13 20 7 11 1007.3 1007.2 0.0
15/02:00pm 37.0 38.9 18.5 33 12.2 NNE 6 13 3 7 1007.8 1007.7 0.0
15/01:30pm 37.6 39.8 19.5 34 12.1 NE 7 17 4 9 1008.4 1008.3 0.0
15/01:00pm 35.8 37.5 19.3 38 10.9 ESE 9 22 5 12 1009.0 1008.9 0.0
15/12:30pm 36.2 38.4 20.4 39 10.6 SSW 9 17 5 9 1009.5 1009.4 0.0
15/12:00pm 35.4 38.0 20.5 41 10.0 SSE 7 15 4 8 1010.0 1009.9 0.0
15/11:30am 35.1 38.6 22.1 47 8.9 WNW 7 13 4 7 1010.2 1010.1 0.0
15/11:00am 34.4 37.7 22.5 50 8.2 S 9 20 5 11 1010.6 1010.5 0.0
15/10:30am 33.4 37.1 22.5 52 7.5 SSW 7 17 4 9 1011.1 1010.9 0.0
15/10:00am 32.5 36.1 22.3 55 7.0 SSW 7 17 4 9 1011.3 1011.1 0.0
15/09:30am 31.8 36.3 23.6 62 5.7 SW 6 13 3 7 1011.2 1011.0 0.0
15/09:00am 30.3 34.9 24.2 70 4.2 SSW 7 11 4 6 1011.1 1010.9 0.2
15/08:30am 29.6 34.6 23.8 71 4.0 SSW 4 7 2 4 1010.9 1010.7 0.2
15/08:00am 28.2 33.6 23.8 77 3.0 SSW 2 4 1 2 1010.7 1010.6 0.2
15/07:30am 26.3 31.0 23.4 84 2.0 S 4 6 2 3 1010.5 1010.4 0.2
15/07:00am 24.9 29.6 23.3 91 1.1 S 4 6 2 3 1010.1 1010.0 0.2
15/06:30am 23.6 27.7 22.9 96 0.5 S 6 6 3 3 1009.6 1009.5 0.2
15/06:00am 23.0 27.9 22.3 96 0.5 CALM 0 0 0 0 1009.1 1009.0 0.2
15/05:30am 23.4 28.5 22.6 95 0.5 CALM 0 0 0 0 1008.9 1008.8 0.2
15/05:00am 23.4 28.3 22.4 94 0.7 CALM 0 0 0 0 1008.6 1008.5 0.2
15/04:30am 23.5 28.5 22.5 94 0.7 CALM 0 0 0 0 1008.4 1008.3 0.2
15/04:00am 23.5 27.5 22.7 95 0.5 N 6 6 3 3 1008.3 1008.2 0.2
15/03:30am 23.5 28.1 22.5 94 0.7 WNW 2 2 1 1 1008.3 1008.2 0.2
15/03:00am 23.4 27.2 22.4 94 0.7 NW 6 6 3 3 1008.2 1008.1 0.2
15/02:30am 24.0 28.9 23.0 94 0.7 NW 2 4 1 2 1008.7 1008.6 0.2
15/02:00am 23.9 28.0 22.2 90 1.1 WNW 4 4 2 2 1009.0 1008.9 0.2
15/01:30am 25.1 29.1 22.8 87 1.6 NE 6 7 3 4 1009.8 1009.7 0.2
15/01:00am 25.3 29.4 23.0 87 1.6 NE 6 9 3 5 1010.1 1010.0 0.2
15/12:30am 25.2 30.6 23.3 89 1.3 CALM 0 7 0 4 1010.0 1009.9 0.2
15/12:00am 25.3 30.5 23.5 90 1.2 ENE 2 4 1 2 1010.1 1010.0 0.2
 
Date/Time
CST
Temp
°C
App
Temp
°C
Dew
Point
°C
Rel
Hum
%
Delta-T
°C
Wind Press
QNH
hPa
Press
MSL
hPa
Rain since
9am
mm
Dir  Spd
km/h
Gust
km/h
Spd
kts
Gust
kts
14/11:30pm 25.2 29.4 23.1 88 1.4 E 6 6 3 3 1010.2 1010.1 0.2
14/11:00pm 25.3 30.8 23.4 89 1.3 CALM 0 0 0 0 1010.1 1010.0 0.2
14/10:30pm 25.5 29.2 23.2 87 1.6 SW 9 11 5 6 1009.9 1009.8 0.2
14/10:00pm 26.6 31.0 23.5 83 2.1 SSE 6 6 3 3 1009.8 1009.7 0.2
14/09:30pm 26.7 30.8 23.2 81 2.4 WSW 7 7 4 4 1009.1 1009.0 0.2
14/09:00pm 27.5 31.0 22.9 76 3.1 WNW 9 11 5 6 1008.7 1008.6 0.2
14/08:30pm 28.0 32.1 23.2 75 3.3 NW 7 9 4 5 1008.4 1008.3 0.2
14/08:00pm 28.8 32.4 23.0 71 4.0 NW 9 13 5 7 1007.7 1007.6 0.2
14/07:30pm 29.4 31.9 23.1 69 4.3 WNW 15 24 8 13 1007.5 1007.4 0.2
14/07:00pm 30.0 32.7 22.2 63 5.3 WSW 11 13 6 7 1007.3 1007.2 0.2
14/06:30pm 30.6 33.1 21.7 59 6.0 NW 11 17 6 9 1007.0 1006.9 0.2
14/06:00pm 32.9 35.4 21.7 51 7.6 NW 11 15 6 8 1006.8 1006.7 0.2
14/05:30pm 33.0 34.0 21.8 51 7.6 W 19 24 10 13 1006.5 1006.4 0.2
14/05:00pm 34.1 35.4 20.8 45 8.9 N 15 22 8 12 1006.2 1006.1 0.2
14/04:30pm 35.8 37.8 21.6 43 9.7 NNW 13 20 7 11 1006.0 1005.9 0.2
14/04:00pm 35.6 37.0 21.1 43 9.8 NNW 15 20 8 11 1006.5 1006.4 0.2
14/03:30pm 35.7 35.8 19.2 38 10.9 N 17 22 9 12 1006.8 1006.7 0.2
14/03:00pm 37.0 38.3 19.4 35 11.7 E 11 17 6 9 1007.2 1007.1 0.0
14/02:30pm 33.3 36.6 20.8 48 8.4 NE 4 13 2 7 1008.0 1007.9 0.0
14/02:18pm 32.0 32.3 19.6 47 8.2 E 17 43 9 23 1008.4 1008.3 0.0
14/02:00pm 37.0 38.9 19.0 34 11.9 NE 7 13 4 7 1008.3 1008.2 0.0
14/01:30pm 36.5 38.8 19.4 36 11.4 S 6 13 3 7 1009.0 1008.9 0.0
14/01:00pm 36.8 38.1 20.1 37 11.2 SW 13 22 7 12 1009.7 1009.6 0.0
14/12:30pm 35.9 39.4 22.1 44 9.5 W 7 19 4 10 1010.3 1010.2 0.0
14/12:00pm 35.6 38.9 21.8 44 9.4 SW 7 26 4 14 1011.0 1010.8 0.0
14/11:30am 33.7 35.9 21.2 48 8.4 SW 11 19 6 10 1011.3 1011.1 0.0
14/11:00am 33.4 37.2 22.8 53 7.3 SSW 7 13 4 7 1011.7 1011.5 0.0
14/10:30am 32.6 36.4 22.7 56 6.8 SSW 7 19 4 10 1012.2 1012.0 0.0
14/10:00am 32.2 36.1 22.9 58 6.4 WSW 7 15 4 8 1012.4 1012.2 0.0
14/09:30am 30.7 34.9 23.1 64 5.2 NW 6 7 3 4 1012.5 1012.3 0.0
14/09:00am 30.3 35.5 23.5 67 4.7 SSW 2 4 1 2 1012.5 1012.3 0.0
14/08:30am 29.9 35.4 24.1 71 4.0 NNW 2 6 1 3 1012.3 1012.1 0.0
14/08:00am 28.4 34.5 24.4 79 2.8 CALM 0 0 0 0 1012.3 1012.1 0.0
14/07:30am 26.8 32.4 24.3 86 1.7 ESE 2 4 1 2 1011.9 1011.7 0.0
14/07:00am 25.0 30.6 23.6 92 1.0 CALM 0 0 0 0 1011.5 1011.3 0.0
14/06:30am 23.9 29.3 23.2 96 0.5 CALM 0 0 0 0 1011.0 1010.8 0.0
14/06:00am 23.4 28.7 23.1 98 0.2 CALM 0 0 0 0 1010.5 1010.4 0.0
14/05:30am 23.2 28.2 22.5 96 0.5 CALM 0 0 0 0 1010.2 1010.1 0.0
14/05:00am 23.3 28.3 22.5 95 0.5 CALM 0 0 0 0 1010.2 1010.1 0.0
14/04:30am 23.9 29.0 22.7 93 0.8 CALM 0 0 0 0 1010.0 1009.9 0.0
14/04:00am 24.6 30.2 23.6 94 0.7 CALM 0 0 0 0 1010.1 1010.0 0.0
14/03:30am 24.3 29.1 22.9 92 0.9 N 2 2 1 1 1010.0 1009.9 0.0
14/03:00am 24.2 28.4 22.5 90 1.1 N 4 6 2 3 1010.2 1010.1 0.0
14/02:30am 24.9 29.4 23.0 89 1.3 NNE 4 6 2 3 1010.5 1010.4 0.0
14/02:00am 24.7 29.2 22.9 90 1.2 N 4 6 2 3 1011.0 1010.8 0.0
14/01:30am 24.6 28.6 22.7 89 1.3 NNE 6 6 3 3 1011.2 1011.0 0.0
14/01:00am 24.4 28.5 22.3 88 1.4 NNE 4 6 2 3 1011.1 1010.9 0.0
14/12:30am 24.1 28.4 21.2 84 1.9 CALM 0 0 0 0 1011.4 1011.2 0.0
14/12:00am 25.1 29.7 22.4 85 1.8 ENE 2 2 1 1 1011.7 1011.5 0.0
 
Date/Time
CST
Temp
°C
App
Temp
°C
Dew
Point
°C
Rel
Hum
%
Delta-T
°C
Wind Press
QNH
hPa
Press
MSL
hPa
Rain since
9am
mm
Dir  Spd
km/h
Gust
km/h
Spd
kts
Gust
kts
13/11:30pm 25.2 29.4 21.7 81 2.3 ENE 2 4 1 2 1011.7 1011.5 0.0
13/11:00pm 25.1 28.8 21.4 80 2.4 ENE 4 4 2 2 1011.6 1011.4 0.0
13/10:30pm 25.8 28.8 21.2 76 3.0 NE 7 9 4 5 1011.2 1011.0 0.0
13/10:00pm 25.8 28.7 21.0 75 3.2 NE 7 9 4 5 1010.7 1010.6 0.0
13/09:30pm 25.0 27.9 21.1 79 2.6 N 7 9 4 5 1010.3 1010.2 0.0
13/09:00pm 25.2 28.2 20.9 77 2.8 NNE 6 9 3 5 1010.1 1010.0 0.0
13/08:30pm 25.5 28.2 20.7 75 3.2 N 7 9 4 5 1009.2 1009.1 0.0
13/08:00pm 26.5 29.5 20.8 71 3.8 WSW 6 9 3 5 1009.3 1009.2 0.0
13/07:30pm 26.4 28.3 20.5 70 3.9 W 11 15 6 8 1009.2 1009.1 0.0
13/07:00pm 27.2 28.6 20.3 66 4.5 WNW 13 20 7 11 1008.9 1008.8 0.0
13/06:30pm 27.8 28.7 20.9 66 4.6 W 17 22 9 12 1008.8 1008.7 0.0
13/06:00pm 31.3 33.9 22.0 57 6.3 NW 11 26 6 14 1009.0 1008.9 0.0
13/05:30pm 32.1 35.0 23.1 59 6.2 NNW 13 17 7 9 1008.4 1008.3 0.0
13/05:00pm 33.6 34.5 22.7 53 7.5 N 22 28 12 15 1007.5 1007.4 0.0
13/04:30pm 34.5 35.9 23.5 52 7.7 N 22 30 12 16 1007.5 1007.4 0.0
13/04:00pm 33.9 34.2 24.8 59 6.4 N 32 43 17 23 1007.7 1007.6 0.0
13/03:30pm 34.1 34.9 23.2 53 7.6 N 24 35 13 19 1007.8 1007.7 0.0
13/03:00pm 38.0 39.8 18.4 31 12.9 E 6 15 3 8 1008.0 1007.9 0.0
13/02:30pm 37.4 38.9 18.9 34 12.3 SE 9 13 5 7 1008.5 1008.4 0.0
13/02:00pm 37.6 39.4 19.5 34 12.1 W 9 17 5 9 1008.9 1008.8 0.0
13/01:30pm 36.5 38.4 19.0 35 11.6 WSW 7 15 4 8 1009.5 1009.4 0.0
13/01:00pm 36.3 39.3 20.1 38 10.9 NE 4 9 2 5 1010.1 1010.0 0.0
13/12:30pm 35.2 37.4 20.3 41 10.0 SSE 9 17 5 9 1010.7 1010.6 0.0
13/12:00pm 35.3 36.6 19.2 38 10.6 S 11 17 6 9 1011.4 1011.2 0.0
13/11:30am 34.8 38.5 22.2 48 8.6 SW 6 13 3 7 1011.9 1011.7 0.0
13/11:00am 33.8 37.3 21.9 49 8.1 WNW 6 13 3 7 1012.3 1012.1 0.0
13/10:30am 33.0 37.6 22.4 53 7.3 WNW 2 9 1 5 1012.7 1012.5 0.0
13/10:00am 32.1 35.8 22.5 57 6.6 WSW 7 11 4 6 1013.0 1012.8 0.0
13/09:30am 31.4 35.7 22.7 60 6.0 WNW 4 13 2 7 1013.3 1013.1 0.0
13/09:00am 30.5 34.3 22.7 63 5.3 WNW 7 15 4 8 1013.3 1013.1 0.0
13/08:30am 29.9 34.2 23.6 69 4.3 WNW 7 11 4 6 1013.1 1012.9 0.0
13/08:00am 29.1 33.5 23.8 73 3.7 WNW 7 11 4 6 1013.0 1012.8 0.0
13/07:30am 27.7 33.0 24.3 82 2.4 WSW 4 6 2 3 1013.0 1012.8 0.0
13/07:00am 25.1 31.0 24.1 94 0.7 CALM 0 0 0 0 1012.7 1012.5 0.0
13/06:30am 24.6 30.2 23.6 94 0.7 CALM 0 0 0 0 1012.5 1012.3 0.0
13/06:00am 24.3 30.0 23.8 97 0.3 CALM 0 0 0 0 1012.3 1012.1 0.0
13/05:30am 23.9 28.4 23.0 95 0.6 WSW 4 4 2 2 1011.9 1011.7 0.0
13/05:00am 24.3 28.9 23.1 93 0.8 SW 4 6 2 3 1011.7 1011.5 0.0
13/04:30am 24.4 28.5 23.0 92 0.9 SW 6 6 3 3 1011.5 1011.3 0.0
13/04:00am 25.4 31.0 23.6 90 1.2 CALM 0 2 0 1 1011.2 1011.0 0.0
13/03:30am 25.1 29.3 23.2 89 1.3 N 6 6 3 3 1011.0 1010.8 0.0
13/03:00am 25.3 29.4 23.0 87 1.6 N 6 7 3 4 1011.0 1010.8 0.0
13/02:30am 25.7 29.6 23.0 85 1.8 N 7 9 4 5 1011.1 1010.9 0.0
13/02:00am 26.2 29.8 23.1 83 2.1 N 9 11 5 6 1011.5 1011.3 0.0
13/01:30am 26.5 29.9 23.4 83 2.1 N 11 13 6 7 1011.7 1011.5 0.0
13/01:00am 26.5 30.5 23.8 85 1.9 N 9 11 5 6 1012.1 1011.9 0.0
13/12:30am 26.3 30.6 23.6 85 1.8 N 7 9 4 5 1012.5 1012.3 0.0
13/12:00am 26.5 30.1 22.1 77 3.0 NNE 6 6 3 3 1012.7 1012.5 0.0
 
Date/Time
CST
Temp
°C
App
Temp
°C
Dew
Point
°C
Rel
Hum
%
Delta-T
°C
Wind Press
QNH
hPa
Press
MSL
hPa
Rain since
9am
mm
Dir  Spd
km/h
Gust
km/h
Spd
kts
Gust
kts
12/11:30pm 26.1 29.5 21.7 77 2.9 N 6 7 3 4 1012.6 1012.4 0.0
12/11:00pm 26.2 28.7 21.0 73 3.4 N 9 11 5 6 1012.5 1012.3 0.0
12/10:30pm 26.0 28.2 20.3 71 3.7 N 9 11 5 6 1012.2 1012.0 0.0

Other formats

Comma delimited format used in spreadsheet applications
http://www.bom.gov.au/fwo/IDD60801/IDD60801.95121.axf

JavaScript Object Notation format (JSON) in row-major order
http://www.bom.gov.au/fwo/IDD60801/IDD60801.95121.json

Data quality

Most of these data are generated automatically and are frequently updated. Quality checks on data are not normally performed. It is possible for incorrect values to appear. Refer to information at About Latest Weather Observations and please check the disclaimer before using these data.